Aérodrome :
LOGIN :

S'inscrire | Disclaimer

   EN    FR    IT 

 










Légende :    VFR   VFR Marginal   IFR   IFR Intensif   IFR Très Intensif
Visi : 
Plafond : 
>= 8 km
>= 3000ft
5 à 8 km
1000 à 3000 ft
1500m à 5 km
500 à 1000 ft
800 à 1500m
200 à 500 ft
< 800m
< 200 ft
Symboles :   Orages  Brouillard  Fortes neiges  Fortes précipitations  Vent > 20 kt
SIGMETs :   Divers  Orages  Givrage  Turbulence  Onde Orograph.  Cendres Volcan.







- Altitude de l'aérodrome : 33 ft
- Code IATA : MHZ


EGUN - RAF Mildenhall

DERNIER METAR :
  • 210227Z 25004KT 9999 SCT042 14/14 A3000 RMK AO2A SLP162 $

METARs EXPIRÉS :
  • 210206Z 25005KT 9999 BKN041 BKN055 15/15 A3000 RMK AO2A SLP162 $
  • 210156Z 25007KT 9999 SCT041 14/14 A3000 RMK AO2A SLP162 T01370137 $
  • 210136Z 25004KT 9999 SCT046 14/14 A2999 RMK AO2A SLP159 $
  • 210056Z 27004KT 9999 BKN041 BKN049 14/14 A2998 RMK AO2A SLP155 T01380138 $
  • 210046Z 28004KT 9999 SCT037 BKN048 15/15 A2997 RMK AO2A SLP152 $
  • 210026Z 25004KT 9999 BKN038 14/14 A2997 RMK AO2A SLP152 $
  • 202356Z 27004KT 9999 FEW046 15/14 A2996 RMK AO2A SLP148 6//// T01490138 10192 20145 402480145 52022 $

TAF TAF EGUN
Valide du 20 à 20h jusqu'au 22 à 02h UTC


202010Z 2020/2202 27009KT 9999 BKN030 QNH2983INS TX22/2114Z TN11/2103Z
Pas de NOTAMs connus pour ce terrain.



MET'MAP, la Météo Aéronautique d'un coup d'oeil ! - Copyright ORBIFLY Décembre 2007 - Disclaimer

ORBIFLY MET'MAP TEAM :

Programmation & Développement : Alexandra Zaïnal
Conception & Développement : Baudouin d'Aumeries
Co-Programmation & Développement : Marc-Olivier Méhu
Soutien technique & logistique : Manuel Goepfert

Contact : metmap@orbifly.com




SOURCES & CREDITS :

   NOAA